メインページ
METAR-TAF:

METAR-TAF

空港 :

木更津, 日本

木更津駐屯地

緯度: 35-24N, 経度: 139-55E, 海抜: 3m

現時点の気象観測

当レポートは2分前の23:38(UTC)に作成
北/北西の風 19kt、最大31ktの突風を伴う
気温 3°C
湿度 25%
気圧 1018 hPa
視程10km以上
高度4000ftの雲はほとんどない
高度24000ftの雲は散在している

METAR: RJTK 172338Z 34019G31KT 9999 FEW040 SCT240 03/M15 Q1018 RMK 1SC040 4CI240 A3008

時間: 08:40 (23:40 UTC)


TAF: 見つかりません

4,000以上の空港の気象観測と天気予報(METAR報とTAF報)

利用可能な観測所は地図上に黄色い丸と赤い丸で示す。

丸の上にカーソルを重ねると観測所名を参照できる。

次にクリックすると気象観測と天気予報を参照できる。

マップの切り替え:黒色「×」印の緑ボタンをクリックして拡大、「-」印の緑ボタンをクリックして縮小、緑色の三角印をクリックして隣りの地図に切り替え


METAR-TAF: